カンザスシティ の空港の天気 - METARとTAF

カンザスシティ国際空港 ( KMCI / MCI ) - アメリカ ミズーリ州カンザスシティ
飛行場実況気象(Metar)
観測時間11/30 11:53 CST (11/30 17:53 UTC)
風向・風速西北西 6m/s
視程10km以上
天気現象
なし
気温0.6℃
湿度38%
気圧1030.1hPa
METARKMCI 301753Z 29012KT 10SM CLR 01/M12 A3039 RMK AO2 SLP301 T00061122 10006 21061 50009
過去の天気等 Google飛行場航空写真 Wunderground天気予報

過去48時間のMETAR

飛行場予報(TAF)
発表時間: 11/30 11:20 CST (11/30 17:20 UTC)
予報対象時間: 30日12時 CST ~ 1日12時 CST
風向・風速西北西 7m/s
視程10km以上
なし
30日17時 CST から
風向・風速不定 2m/s
視程10km以上
全天の4割程度の雲 雲底高度 7620m
1日9時 CST から
風向・風速南 9m/s 瞬間風速 15m/s
視程10km以上
なし
KMCI 301720Z 3018/0118 30013KT P6SM SKC
FM302300 VRB03KT P6SM SCT250
FM011500 18018G30KT P6SM SKC